Time;durP1;ratioP1;P1;durP2;ratioP2;P2;SDS_P1;SDS_P2;PMS_P1;PMS_P2;Temp;Humidity;BMP_temperature;BMP_pressure;BME280_temperature;BME280_humidity;BME280_pressure;Samples;Min_cycle;Max_cycle;Signal;HPM_P1;HPM_P2
2021/07/28 00:00:04;;;;;;;11.10;5.10;;;;;;;29.59;43.82;99537.44;4484027;32;33848;-66
2021/07/28 00:02:40;;;;;;;12.80;6.07;;;;;;;29.58;43.80;99535.81;4478178;32;33413;-67
2021/07/28 00:05:08;;;;;;;14.95;6.07;;;;;;;29.58;43.80;99534.97;4468394;32;33968;-66
2021/07/28 00:07:35;;;;;;;13.13;5.90;;;;;;;29.58;43.74;99537.72;4480267;32;33511;-66
2021/07/28 00:10:04;;;;;;;13.77;6.20;;;;;;;29.56;43.75;99535.22;4466064;32;77909;-66
2021/07/28 00:12:31;;;;;;;16.77;6.28;;;;;;;29.54;43.82;99534.66;4468157;32;34118;-67
2021/07/28 00:14:59;;;;;;;10.93;5.95;;;;;;;29.54;43.80;99531.91;4480070;32;34061;-66
2021/07/28 00:17:28;;;;;;;17.00;6.90;;;;;;;29.53;43.84;99527.53;4480390;32;34804;-67
2021/07/28 00:20:22;;;;;;;10.55;5.70;;;;;;;29.53;43.85;99530.28;4468582;32;34626;-67
2021/07/28 00:25:34;;;;;;;13.38;5.95;;;;;;;29.51;43.91;99526.97;4468296;32;34108;-67
2021/07/28 00:28:02;;;;;;;17.58;5.85;;;;;;;29.49;43.86;99521.75;4480429;32;34967;-66
2021/07/28 00:30:30;;;;;;;13.30;6.47;;;;;;;29.47;43.90;99517.59;4468091;32;33529;-66
2021/07/28 00:32:58;;;;;;;11.95;5.75;;;;;;;29.48;43.91;99516.53;4471032;32;33469;-66
2021/07/28 00:35:25;;;;;;;12.73;5.68;;;;;;;29.47;43.91;99525.84;4482667;32;34662;-66
2021/07/28 00:37:55;;;;;;;16.65;6.10;;;;;;;29.45;43.80;99522.56;4469588;32;34141;-66
2021/07/28 00:40:22;;;;;;;;;;;;;;;29.44;43.84;99527.25;4468424;32;34835;-66
2021/07/28 00:42:50;;;;;;;15.38;5.75;;;;;;;29.55;43.56;99519.84;4468201;32;33670;-66
2021/07/28 00:45:17;;;;;;;13.68;5.93;;;;;;;29.46;43.67;99518.72;4468067;32;33201;-66
2021/07/28 00:47:47;;;;;;;12.32;5.60;;;;;;;29.43;43.64;99519.28;4468256;32;33733;-66
2021/07/28 00:50:14;;;;;;;;;;;;;;;29.41;43.67;99518.72;4467524;32;33858;-66
2021/07/28 00:52:48;;;;;;;12.30;5.78;;;;;;;29.51;43.41;99523.38;4467997;32;34203;-67
2021/07/28 00:55:16;;;;;;;13.15;6.25;;;;;;;29.41;43.45;99514.03;4466810;32;33992;-67
2021/07/28 00:57:43;;;;;;;14.25;6.20;;;;;;;29.37;43.60;99514.84;4467847;32;33957;-67
2021/07/28 01:00:11;;;;;;;13.82;6.68;;;;;;;29.36;43.63;99510.47;4479557;32;34521;-66
2021/07/28 01:02:39;;;;;;;10.77;6.10;;;;;;;29.35;43.71;99511.56;4467875;32;32791;-66
2021/07/28 01:05:07;;;;;;;23.48;7.15;;;;;;;29.34;43.71;99504.44;4467563;32;33712;-67
2021/07/28 01:07:34;;;;;;;12.25;5.43;;;;;;;29.33;43.65;99506.34;4479414;32;34225;-67
2021/07/28 01:10:02;;;;;;;11.82;5.72;;;;;;;29.33;43.77;99502.75;4469482;32;34848;-66
2021/07/28 01:12:31;;;;;;;14.57;6.57;;;;;;;29.32;43.68;99495.59;4494870;31;33488;-66
2021/07/28 01:14:59;;;;;;;21.73;6.87;;;;;;;29.29;43.71;99493.44;4470253;32;34747;-66
2021/07/28 01:17:26;;;;;;;16.25;6.25;;;;;;;29.31;43.69;99494.78;4467674;32;34202;-67
2021/07/28 01:19:57;;;;;;;13.27;6.40;;;;;;;29.29;43.75;99499.75;4467517;32;34004;-66
2021/07/28 01:22:25;;;;;;;13.10;6.15;;;;;;;29.28;43.81;99500.81;4479180;32;34297;-66
2021/07/28 01:24:52;;;;;;;11.45;5.78;;;;;;;29.29;43.81;99488.75;4466603;32;34246;-66
2021/07/28 01:27:20;;;;;;;12.45;6.25;;;;;;;29.28;43.80;99492.56;4469754;32;34140;-66
2021/07/28 01:29:47;;;;;;;15.57;5.90;;;;;;;29.28;43.83;99503.56;4494688;31;34854;-66
2021/07/28 01:32:15;;;;;;;13.10;5.93;;;;;;;29.26;43.82;99497.53;4483057;32;33486;-67
2021/07/28 01:34:42;;;;;;;13.02;6.05;;;;;;;29.26;43.84;99499.47;4482804;32;33546;-67
2021/07/28 01:37:10;;;;;;;12.80;5.62;;;;;;;29.25;43.83;99493.16;4481672;32;34318;-66
2021/07/28 01:39:38;;;;;;;13.23;6.47;;;;;;;29.25;43.79;99493.16;4468946;32;34764;-66
2021/07/28 01:42:05;;;;;;;16.85;5.80;;;;;;;29.24;43.75;99491.50;4481414;32;34159;-66
2021/07/28 01:44:33;;;;;;;12.15;6.03;;;;;;;29.24;43.81;99488.75;4482227;32;33506;-66
2021/07/28 01:47:00;;;;;;;13.45;6.20;;;;;;;29.22;43.78;99485.44;4482871;32;34074;-66
2021/07/28 01:49:28;;;;;;;14.20;6.37;;;;;;;29.22;43.68;99482.69;4482554;32;34870;-66
2021/07/28 01:51:55;;;;;;;11.93;5.55;;;;;;;29.20;43.71;99485.72;4482678;32;34503;-66
2021/07/28 01:54:26;;;;;;;12.90;6.45;;;;;;;29.19;43.71;99480.47;4482818;32;34341;-66
2021/07/28 01:56:53;;;;;;;13.98;5.75;;;;;;;29.18;43.69;99479.66;4482535;32;34071;-66
2021/07/28 01:59:25;;;;;;;14.15;6.05;;;;;;;29.18;43.69;99467.84;4481695;32;33914;-66
2021/07/28 02:01:54;;;;;;;10.60;5.90;;;;;;;29.16;43.76;99468.13;4484285;32;34315;-66
2021/07/28 02:04:22;;;;;;;17.23;6.75;;;;;;;29.17;43.84;99463.44;4485123;32;34071;-66
2021/07/28 02:06:49;;;;;;;11.73;5.60;;;;;;;29.17;43.78;99463.44;4485035;32;34121;-66
2021/07/28 02:09:17;;;;;;;11.93;5.95;;;;;;;29.15;43.73;99463.72;4484917;32;34983;-66
2021/07/28 02:11:45;;;;;;;15.80;6.45;;;;;;;29.16;43.78;99461.81;4484628;31;33387;-66
2021/07/28 02:14:13;;;;;;;12.50;5.53;;;;;;;29.16;43.70;99456.31;4484825;32;34727;-66
2021/07/28 02:16:40;;;;;;;15.48;6.62;;;;;;;29.13;43.77;99460.41;4485142;32;33261;-67
2021/07/28 02:19:08;;;;;;;16.17;6.97;;;;;;;29.13;43.71;99465.09;4484124;32;33789;-66
2021/07/28 02:21:35;;;;;;;14.05;6.32;;;;;;;29.11;43.72;99462.63;4484818;32;33683;-66
2021/07/28 02:24:03;;;;;;;11.65;6.47;;;;;;;29.11;43.77;99462.63;4484893;32;34683;-66
2021/07/28 02:26:31;;;;;;;15.90;6.53;;;;;;;29.12;43.68;99463.44;4484817;32;34118;-66
2021/07/28 02:28:58;;;;;;;15.38;6.78;;;;;;;29.10;43.64;99462.88;4484826;32;33509;-66
2021/07/28 02:31:26;;;;;;;11.90;6.35;;;;;;;29.09;43.64;99467.53;4484672;32;34200;-66
2021/07/28 02:33:53;;;;;;;14.07;6.40;;;;;;;29.08;43.61;99460.41;4484628;32;33485;-66
2021/07/28 02:36:21;;;;;;;15.80;6.00;;;;;;;29.08;43.62;99465.91;4484104;32;34918;-66
2021/07/28 02:38:48;;;;;;;13.93;5.90;;;;;;;29.07;43.63;99467.00;4484645;32;34228;-66
2021/07/28 02:41:16;;;;;;;16.15;6.37;;;;;;;29.08;43.69;99467.84;4484637;32;33406;-67
2021/07/28 02:43:43;;;;;;;15.85;6.18;;;;;;;29.06;43.73;99468.13;4484629;32;34233;-67
2021/07/28 02:46:11;;;;;;;16.55;6.57;;;;;;;29.07;43.70;99472.50;4484795;32;34050;-66
2021/07/28 02:48:39;;;;;;;14.82;6.57;;;;;;;29.07;43.76;99469.75;4484703;32;33598;-66
2021/07/28 02:51:06;;;;;;;12.60;6.25;;;;;;;29.05;43.80;99465.63;4484618;32;33664;-66
2021/07/28 02:53:33;;;;;;;13.15;6.65;;;;;;;29.03;43.82;99471.41;4483585;32;34528;-66
2021/07/28 02:56:01;;;;;;;14.77;5.70;;;;;;;29.04;43.80;99473.03;4484628;32;34851;-66
2021/07/28 02:58:30;;;;;;;13.62;6.37;;;;;;;29.05;43.83;99476.59;4484587;32;34187;-65
2021/07/28 03:00:57;;;;;;;16.83;6.28;;;;;;;29.02;43.88;99472.50;4484617;32;33263;-66
2021/07/28 03:03:25;;;;;;;13.23;5.85;;;;;;;29.02;43.90;99480.75;4484681;32;33982;-66
2021/07/28 03:05:52;;;;;;;13.18;5.95;;;;;;;29.01;43.87;99472.78;4484651;32;34820;-66
2021/07/28 03:08:20;;;;;;;16.80;6.18;;;;;;;29.01;43.96;99456.31;4484459;32;34841;-67
2021/07/28 03:10:48;;;;;;;16.55;6.75;;;;;;;28.99;43.95;99462.03;4484012;32;34399;-66
2021/07/28 03:13:15;;;;;;;13.93;6.10;;;;;;;28.97;43.85;99465.06;4483787;32;35091;-66
2021/07/28 03:15:42;;;;;;;14.10;6.28;;;;;;;28.96;43.83;99452.44;4484488;32;34903;-66
2021/07/28 03:18:10;;;;;;;13.10;6.20;;;;;;;28.97;43.82;99467.00;4484689;32;33469;-66
2021/07/28 03:20:37;;;;;;;18.87;7.00;;;;;;;28.96;43.83;99459.87;4484607;32;33899;-66
2021/07/28 03:23:05;;;;;;;14.95;5.80;;;;;;;28.96;43.84;99459.87;4484423;32;34490;-66
2021/07/28 03:25:35;;;;;;;13.20;6.47;;;;;;;28.96;43.82;99454.38;4484493;32;33700;-66
2021/07/28 03:28:03;;;;;;;11.73;5.70;;;;;;;28.96;43.79;99455.19;4483835;32;34674;-66
2021/07/28 03:30:30;;;;;;;16.23;6.60;;;;;;;28.96;43.83;99449.69;4484386;32;33523;-67
2021/07/28 03:32:58;;;;;;;12.50;6.43;;;;;;;28.96;43.83;99444.19;4484546;32;34819;-67
2021/07/28 03:35:25;;;;;;;17.73;6.62;;;;;;;28.97;43.87;99443.09;4484426;32;33967;-66
2021/07/28 03:37:53;;;;;;;13.68;6.37;;;;;;;28.97;43.94;99442.28;4484209;32;34229;-66
2021/07/28 03:40:21;;;;;;;14.70;6.90;;;;;;;28.95;44.05;99442.53;4484435;32;33533;-66
2021/07/28 03:42:48;;;;;;;14.52;6.68;;;;;;;28.93;44.12;99444.69;4484007;32;33745;-66
2021/07/28 03:45:16;;;;;;;16.52;7.07;;;;;;;28.92;44.13;99445.00;4484225;32;35573;-67
2021/07/28 03:47:43;;;;;;;17.02;6.82;;;;;;;28.90;44.19;99439.75;4484371;32;34743;-66
2021/07/28 03:50:11;;;;;;;17.40;6.55;;;;;;;28.89;44.21;99449.09;4484378;32;34446;-67
2021/07/28 03:52:38;;;;;;;13.73;6.37;;;;;;;28.88;44.27;99452.13;4484448;32;33627;-67
2021/07/28 03:55:07;;;;;;;17.23;7.07;;;;;;;28.88;44.32;99441.12;4484185;32;33918;-66
2021/07/28 03:57:34;;;;;;;14.60;6.25;;;;;;;28.88;44.37;99441.12;4484288;32;34283;-66
2021/07/28 04:00:04;;;;;;;13.13;6.20;;;;;;;28.87;44.36;99445.81;4483418;32;34608;-66
2021/07/28 04:02:33;;;;;;;13.90;7.15;;;;;;;28.87;44.35;99447.72;4495801;31;33883;-67
2021/07/28 04:05:02;;;;;;;11.50;5.70;;;;;;;28.87;44.37;99444.97;4484226;32;34536;-65
2021/07/28 04:07:30;;;;;;;12.77;6.50;;;;;;;28.86;44.28;99444.13;4484179;32;34489;-67
2021/07/28 04:09:58;;;;;;;13.70;6.45;;;;;;;28.88;44.28;99441.12;4484183;32;33655;-67
2021/07/28 04:12:26;;;;;;;14.20;6.82;;;;;;;28.87;44.33;99450.47;4484115;32;33781;-66
2021/07/28 04:14:53;;;;;;;17.90;6.18;;;;;;;28.86;44.48;99443.31;4484054;32;34470;-66
2021/07/28 04:17:21;;;;;;;17.30;6.00;;;;;;;28.85;44.54;99458.13;4483401;32;34131;-62
2021/07/28 04:19:49;;;;;;;18.55;6.82;;;;;;;28.86;44.60;99460.59;4483014;32;32493;-65
2021/07/28 04:22:17;;;;;;;18.00;7.22;;;;;;;28.87;44.75;99450.47;4483955;32;34383;-62
2021/07/28 04:24:45;;;;;;;17.70;7.40;;;;;;;28.87;44.73;99455.97;4483995;32;34499;-62
2021/07/28 04:27:12;;;;;;;18.33;6.37;;;;;;;28.88;44.80;99455.69;4484051;32;34048;-63
2021/07/28 04:29:40;;;;;;;14.23;5.82;;;;;;;28.90;44.77;99450.72;4484347;32;33766;-63
2021/07/28 04:32:08;;;;;;;13.82;6.10;;;;;;;28.91;44.72;99449.66;4482664;32;34720;-65
2021/07/28 04:34:35;;;;;;;18.83;6.57;;;;;;;28.92;44.71;99453.22;4483333;32;34102;-64
2021/07/28 04:37:03;;;;;;;19.00;6.30;;;;;;;28.93;44.76;99446.63;4484002;32;34013;-62
2021/07/28 04:39:34;;;;;;;13.62;6.55;;;;;;;28.94;44.75;99448.28;4483954;32;33231;-62
2021/07/28 04:42:01;;;;;;;15.05;6.15;;;;;;;28.96;44.73;99443.38;4483678;32;34343;-64
2021/07/28 04:44:29;;;;;;;15.13;7.03;;;;;;;28.96;44.76;99441.47;4483738;32;34103;-64
2021/07/28 04:46:57;;;;;;;14.87;6.85;;;;;;;28.98;44.76;99446.66;4483840;32;34957;-62
2021/07/28 04:49:24;;;;;;;17.62;6.97;;;;;;;29.00;44.70;99435.41;4483946;32;32873;-63
2021/07/28 04:51:52;;;;;;;15.63;6.62;;;;;;;29.00;44.66;99430.72;4483004;32;33520;-64
2021/07/28 04:54:19;;;;;;;16.60;6.78;;;;;;;29.03;44.59;99432.94;4483552;32;34014;-65
2021/07/28 04:56:47;;;;;;;18.70;7.82;;;;;;;29.03;44.59;99427.44;4483510;32;34016;-62
2021/07/28 04:59:14;;;;;;;16.27;6.45;;;;;;;29.03;44.63;99435.69;4483588;32;34354;-64
2021/07/28 05:01:42;;;;;;;19.98;7.10;;;;;;;29.04;44.71;99431.00;4483597;32;34025;-63
2021/07/28 05:04:09;;;;;;;16.37;6.53;;;;;;;29.04;44.81;99431.84;4483346;32;34829;-62
2021/07/28 05:06:41;;;;;;;12.82;6.43;;;;;;;29.06;44.77;99435.16;4483546;32;34700;-63
2021/07/28 05:09:09;;;;;;;13.77;6.28;;;;;;;29.07;44.71;99439.53;4482838;32;33225;-62
2021/07/28 05:11:37;;;;;;;13.62;6.35;;;;;;;29.07;44.69;99441.47;4483013;32;33951;-62
2021/07/28 05:14:05;;;;;;;11.50;6.18;;;;;;;29.07;44.68;99434.03;4483383;32;34098;-62
2021/07/28 05:16:33;;;;;;;14.52;5.90;;;;;;;29.08;44.78;99435.69;4483314;32;33950;-62
2021/07/28 05:19:00;;;;;;;13.62;6.32;;;;;;;29.09;44.74;99431.84;4483476;32;33919;-63
2021/07/28 05:21:28;;;;;;;18.98;7.32;;;;;;;29.10;44.77;99432.66;4483690;32;34742;-62
2021/07/28 05:23:55;;;;;;;17.40;6.82;;;;;;;29.09;44.82;99431.00;4483474;32;33802;-61
2021/07/28 05:26:23;;;;;;;12.65;6.00;;;;;;;29.09;44.93;99434.59;4482535;32;33796;-62
2021/07/28 05:28:50;;;;;;;16.75;6.80;;;;;;;29.11;44.85;99439.81;4483354;32;33994;-62
2021/07/28 05:31:19;;;;;;;16.23;6.78;;;;;;;29.10;44.90;99444.50;4482976;32;33981;-62
2021/07/28 05:33:46;;;;;;;13.82;6.32;;;;;;;29.12;44.85;99442.28;4477397;32;33272;-62
2021/07/28 05:36:14;;;;;;;15.43;6.95;;;;;;;29.12;44.84;99445.03;4484749;32;35446;-61
2021/07/28 05:38:41;;;;;;;13.52;6.80;;;;;;;29.12;44.89;99439.53;4485437;32;33606;-63
2021/07/28 05:41:09;;;;;;;13.15;6.70;;;;;;;29.12;45.03;99436.78;4485114;32;34785;-62
2021/07/28 05:43:36;;;;;;;12.65;6.12;;;;;;;29.13;44.97;99441.19;4485395;32;35186;-62
2021/07/28 05:46:04;;;;;;;12.20;6.70;;;;;;;29.13;45.02;99449.44;4485369;32;33940;-62
2021/07/28 05:48:32;;;;;;;15.32;7.65;;;;;;;29.13;45.06;99443.13;4485215;32;33389;-62
2021/07/28 05:51:00;;;;;;;14.63;6.80;;;;;;;29.14;45.05;99451.06;4485180;32;33941;-62
2021/07/28 05:53:28;;;;;;;16.30;7.55;;;;;;;29.15;45.11;99446.44;4485291;32;33822;-62
2021/07/28 05:55:55;;;;;;;18.00;6.45;;;;;;;29.14;45.15;99442.81;4485195;32;33850;-64
2021/07/28 05:58:22;;;;;;;15.65;7.03;;;;;;;29.16;45.17;99442.56;4485255;32;33261;-64
2021/07/28 06:00:50;;;;;;;14.23;6.82;;;;;;;29.16;45.13;99442.56;4485140;32;34215;-62
2021/07/28 06:03:18;;;;;;;16.58;6.75;;;;;;;29.16;45.21;99437.91;4485119;32;34804;-61
2021/07/28 06:05:46;;;;;;;14.27;7.07;;;;;;;29.16;45.27;99437.09;4485117;32;34872;-62
2021/07/28 06:08:14;;;;;;;12.80;6.95;;;;;;;29.17;45.29;99446.97;4485409;32;34285;-63
2021/07/28 06:10:42;;;;;;;13.55;6.75;;;;;;;29.17;45.29;99452.47;4484940;32;33560;-63
2021/07/28 06:13:09;;;;;;;19.08;6.90;;;;;;;29.17;45.45;99450.53;4484978;32;34467;-64
2021/07/28 06:15:36;;;;;;;18.75;7.20;;;;;;;29.18;45.43;99446.69;4485130;32;34597;-62
2021/07/28 06:18:09;;;;;;;13.27;6.50;;;;;;;29.18;45.50;99452.19;4485121;32;33475;-63
2021/07/28 06:20:36;;;;;;;15.30;6.30;;;;;;;29.19;45.54;99442.88;4485082;32;33833;-63
2021/07/28 06:23:04;;;;;;;15.30;7.12;;;;;;;29.18;45.51;99446.69;4484935;32;34191;-63
2021/07/28 06:25:31;;;;;;;14.27;6.95;;;;;;;29.20;45.53;99436.25;4485047;32;34126;-63
2021/07/28 06:27:59;;;;;;;17.52;6.87;;;;;;;29.21;45.53;99446.16;4485037;32;33315;-62
2021/07/28 06:30:26;;;;;;;13.32;6.25;;;;;;;29.21;45.50;99450.81;4483723;32;33527;-63
2021/07/28 06:32:54;;;;;;;13.98;6.95;;;;;;;29.22;45.47;99450.53;4496446;31;34330;-64
2021/07/28 06:35:21;;;;;;;12.98;6.15;;;;;;;29.23;45.49;99452.19;4485168;32;34557;-64
2021/07/28 06:37:49;;;;;;;13.85;6.47;;;;;;;29.26;45.44;99452.75;4484796;32;33718;-63
2021/07/28 06:40:16;;;;;;;12.80;7.07;;;;;;;29.27;45.44;99451.63;4484854;32;34705;-63
2021/07/28 06:42:44;;;;;;;20.20;7.20;;;;;;;29.28;45.39;99445.03;4484976;32;34051;-64
2021/07/28 06:45:11;;;;;;;18.60;7.18;;;;;;;29.28;45.41;99445.84;4484874;32;33481;-64
2021/07/28 06:47:39;;;;;;;13.50;6.12;;;;;;;29.28;45.39;99440.38;4483858;32;33220;-64
2021/07/28 06:50:07;;;;;;;14.68;6.57;;;;;;;29.29;45.35;99446.72;4484724;32;33891;-64
2021/07/28 06:52:34;;;;;;;12.85;6.30;;;;;;;29.28;45.36;99443.13;4484715;32;34150;-62
2021/07/28 06:55:02;;;;;;;16.95;6.25;;;;;;;29.28;45.34;99443.13;4485077;32;33944;-63
2021/07/28 06:57:30;;;;;;;16.42;6.57;;;;;;;29.29;45.32;99446.72;4484922;32;33539;-65
2021/07/28 06:59:58;;;;;;;15.35;5.93;;;;;;;29.29;45.30;99442.03;4484610;32;34243;-63
2021/07/28 07:02:26;;;;;;;14.82;6.80;;;;;;;29.31;45.13;99439.00;4485164;32;33631;-64
2021/07/28 07:04:53;;;;;;;17.00;6.75;;;;;;;29.30;45.12;99445.59;4484760;32;33760;-63
2021/07/28 07:07:21;;;;;;;16.73;6.20;;;;;;;29.31;45.16;99445.31;4484671;32;33488;-62
2021/07/28 07:09:49;;;;;;;16.00;6.97;;;;;;;29.30;45.21;99443.69;4484708;32;34135;-63
2021/07/28 07:12:16;;;;;;;14.20;6.55;;;;;;;29.30;45.22;99451.94;4484643;32;35027;-64
2021/07/28 07:14:45;;;;;;;16.25;7.03;;;;;;;29.31;45.23;99452.75;4484424;32;34422;-63
2021/07/28 07:17:13;;;;;;;12.63;6.00;;;;;;;29.31;45.20;99445.31;4484601;32;33715;-61
2021/07/28 07:19:41;;;;;;;11.12;5.93;;;;;;;29.31;45.16;99445.31;4484613;32;34147;-63
2021/07/28 07:22:09;;;;;;;9.98;5.95;;;;;;;29.31;45.13;99450.81;4484507;32;34748;-64
2021/07/28 07:24:36;;;;;;;20.83;6.75;;;;;;;29.31;45.10;99448.06;4484810;32;33663;-63
2021/07/28 07:27:04;;;;;;;12.80;5.90;;;;;;;29.32;45.09;99446.16;4484678;32;33708;-62
2021/07/28 07:29:33;;;;;;;12.57;5.65;;;;;;;29.31;45.07;99441.75;4484388;32;33872;-63
2021/07/28 07:32:02;;;;;;;11.70;6.30;;;;;;;29.31;45.05;99448.06;4484615;32;34194;-63
2021/07/28 07:34:29;;;;;;;15.67;5.90;;;;;;;29.34;44.97;99435.72;4484471;32;33942;-64
2021/07/28 07:36:57;;;;;;;12.68;6.25;;;;;;;29.34;44.91;99439.28;4484315;32;33648;-63
2021/07/28 07:39:25;;;;;;;19.20;6.28;;;;;;;29.33;45.06;99448.62;4484789;32;34411;-64
2021/07/28 07:41:52;;;;;;;17.98;6.25;;;;;;;29.34;45.06;99438.47;4484470;32;33814;-64
2021/07/28 07:44:19;;;;;;;17.25;6.55;;;;;;;29.35;45.06;99437.37;4484623;32;34563;-65
2021/07/28 07:46:47;;;;;;;13.93;6.28;;;;;;;29.35;45.13;99440.94;4484522;32;33698;-64
2021/07/28 07:49:15;;;;;;;21.05;6.60;;;;;;;29.34;45.16;99439.28;4481357;32;35312;-66
2021/07/28 07:51:42;;;;;;;17.85;7.35;;;;;;;29.35;45.23;99440.09;4472899;32;33696;-64
2021/07/28 07:54:10;;;;;;;15.85;6.60;;;;;;;29.34;45.25;99453.03;4484214;32;34200;-65
2021/07/28 07:56:37;;;;;;;14.55;6.00;;;;;;;29.35;45.24;99445.59;4483231;32;33156;-62
2021/07/28 07:59:05;;;;;;;14.68;6.50;;;;;;;29.35;45.22;99448.34;4481690;31;35222;-65
2021/07/28 08:01:33;;;;;;;20.62;7.25;;;;;;;29.34;45.36;99444.78;4468586;32;34099;-65
2021/07/28 08:04:01;;;;;;;15.57;6.50;;;;;;;29.35;45.38;99446.44;4468672;32;34139;-64
2021/07/28 08:06:30;;;;;;;16.90;6.15;;;;;;;29.37;45.41;99452.47;4468667;32;33542;-64
2021/07/28 08:08:57;;;;;;;17.08;7.15;;;;;;;29.37;45.42;99448.88;4469171;32;33895;-65
2021/07/28 08:11:25;;;;;;;17.20;6.78;;;;;;;29.36;45.43;99453.56;4483701;32;34154;-65
2021/07/28 08:13:52;;;;;;;14.85;6.68;;;;;;;29.36;45.44;99439.81;4484275;32;33882;-65
2021/07/28 08:16:22;;;;;;;13.90;6.30;;;;;;;29.36;45.42;99444.50;4484327;32;33556;-65
2021/07/28 08:18:50;;;;;;;12.15;5.82;;;;;;;29.37;45.43;99443.41;4483931;32;34718;-63
2021/07/28 08:21:17;;;;;;;13.60;6.78;;;;;;;29.38;45.41;99447.81;4479612;32;34841;-65
2021/07/28 08:23:45;;;;;;;17.35;6.35;;;;;;;29.38;45.37;99445.06;4468618;32;34730;-65
2021/07/28 08:26:15;;;;;;;14.60;6.07;;;;;;;29.38;45.36;99443.13;4468439;32;33439;-65
2021/07/28 08:28:42;;;;;;;12.02;6.20;;;;;;;29.40;45.25;99445.59;4468448;32;34227;-65
2021/07/28 08:31:10;;;;;;;13.80;5.75;;;;;;;29.37;45.23;99441.47;4482956;32;33970;-66
2021/07/28 08:33:38;;;;;;;13.62;6.15;;;;;;;29.39;45.15;99442.03;4483982;32;33851;-63
2021/07/28 08:36:25;;;;;;;12.63;6.30;;;;;;;29.37;45.14;99435.97;4496011;31;32091;-66
2021/07/28 08:38:53;;;;;;;17.58;6.03;;;;;;;29.39;45.10;99432.97;4483896;32;34211;-62
2021/07/28 08:41:20;;;;;;;10.77;6.07;;;;;;;29.38;45.10;99425.81;4483711;32;34519;-65
2021/07/28 08:43:53;;;;;;;15.18;6.05;;;;;;;29.38;45.06;99428.56;4469877;32;34861;-65
2021/07/28 08:46:20;;;;;;;13.80;6.35;;;;;;;29.39;45.04;99424.72;4469893;32;33462;-65
2021/07/28 08:48:48;;;;;;;14.02;6.15;;;;;;;29.39;45.00;99427.47;4482715;32;34185;-65
2021/07/28 08:51:16;;;;;;;11.48;5.80;;;;;;;29.37;44.97;99418.66;4483913;32;34039;-64
2021/07/28 08:53:47;;;;;;;12.68;6.65;;;;;;;29.38;45.00;99420.34;4482502;32;33690;-65
2021/07/28 08:56:14;;;;;;;18.27;6.37;;;;;;;29.38;44.99;99420.34;4483365;32;33557;-66
2021/07/28 08:58:42;;;;;;;14.90;6.32;;;;;;;29.39;44.99;99417.28;4454378;32;34151;-66
2021/07/28 09:01:09;;;;;;;11.77;6.22;;;;;;;29.38;44.93;99418.41;4468215;32;34876;-65
2021/07/28 09:03:39;;;;;;;13.05;6.70;;;;;;;29.39;44.89;99427.47;4468410;32;34619;-65
2021/07/28 09:06:07;;;;;;;;;;;;;;;29.39;44.85;99416.47;4467362;32;33454;-65
2021/07/28 09:08:35;;;;;;;13.07;5.85;;;;;;;29.49;44.60;99411.78;4466850;32;34990;-65
2021/07/28 09:11:07;;;;;;;12.32;5.45;;;;;;;29.41;44.79;99406.00;4469208;32;35055;-65
2021/07/28 09:13:35;;;;;;;11.48;6.03;;;;;;;29.38;44.84;99401.91;4469564;32;33903;-64
2021/07/28 09:16:07;;;;;;;13.50;6.37;;;;;;;29.37;44.84;99413.97;4473795;32;33490;-66
2021/07/28 09:18:42;;;;;;;9.02;5.22;;;;;;;29.38;44.86;99409.34;4485444;32;33543;-65
2021/07/28 09:21:19;;;;;;;12.23;5.18;;;;;;;29.38;44.84;99398.34;4484328;32;34030;-65
2021/07/28 09:23:48;;;;;;;10.52;5.65;;;;;;;29.39;44.79;99391.75;4485545;32;33639;-66
2021/07/28 09:26:50;;;;;;;12.25;5.50;;;;;;;29.38;44.80;99390.91;4480300;32;33404;-64
2021/07/28 09:29:19;;;;;;;13.80;5.87;;;;;;;29.41;44.72;99389.53;4469679;32;33597;-65
2021/07/28 09:31:46;;;;;;;9.70;5.22;;;;;;;29.39;44.78;99391.75;4469836;32;34379;-65
2021/07/28 09:34:21;;;;;;;11.05;5.57;;;;;;;29.40;44.75;99390.63;4469727;32;33656;-66
2021/07/28 09:36:53;;;;;;;13.25;5.65;;;;;;;29.39;44.78;99391.75;4477939;32;33701;-66
2021/07/28 09:39:28;;;;;;;10.77;5.65;;;;;;;29.38;44.74;99387.34;4485458;32;34030;-66
2021/07/28 09:41:57;;;;;;;10.27;5.47;;;;;;;29.39;44.71;99389.00;4485277;32;33802;-63
2021/07/28 09:44:29;;;;;;;11.50;5.95;;;;;;;29.39;44.70;99383.50;4485289;32;34169;-66
2021/07/28 09:47:10;;;;;;;9.75;5.40;;;;;;;29.39;44.69;99392.56;4475935;32;33688;-66
2021/07/28 09:49:39;;;;;;;11.82;5.80;;;;;;;29.41;44.63;99392.28;4469713;32;33601;-62
2021/07/28 09:52:23;;;;;;;9.80;5.43;;;;;;;29.39;44.67;99381.56;4469669;32;34934;-66
2021/07/28 09:54:52;;;;;;;11.45;5.53;;;;;;;29.42;44.61;99377.44;4469502;32;34647;-65
2021/07/28 09:57:21;;;;;;;9.02;5.18;;;;;;;29.39;44.65;99381.56;4480841;32;33622;-66
2021/07/28 10:00:06;;;;;;;10.25;5.28;;;;;;;29.40;44.62;99387.88;4485213;32;34024;-65
2021/07/28 10:02:51;;;;;;;11.15;5.62;;;;;;;29.43;44.57;99384.59;4485233;32;34183;-65
2021/07/28 10:05:19;;;;;;;12.60;5.87;;;;;;;29.41;44.55;99384.03;4483961;32;33906;-66
2021/07/28 10:07:49;;;;;;;10.73;5.87;;;;;;;29.40;44.57;99382.38;4484014;32;33747;-64
2021/07/28 10:10:18;;;;;;;10.07;5.20;;;;;;;29.41;44.56;99375.78;4471285;32;34042;-65
2021/07/28 10:12:48;;;;;;;10.65;4.68;;;;;;;29.40;44.56;99365.91;4485016;32;35304;-65
2021/07/28 10:15:22;;;;;;;11.15;5.18;;;;;;;29.42;44.52;99369.19;4484152;32;33441;-65
2021/07/28 10:17:51;;;;;;;11.82;5.45;;;;;;;29.41;44.54;99364.78;4470281;32;33668;-65
2021/07/28 10:20:18;;;;;;;9.65;5.32;;;;;;;29.41;44.56;99356.53;4455507;32;34384;-65
2021/07/28 10:22:46;;;;;;;10.98;5.15;;;;;;;29.41;44.56;99357.38;4468245;32;35232;-65
2021/07/28 10:25:15;;;;;;;9.18;5.00;;;;;;;29.41;44.54;99357.38;4468065;32;34008;-64
2021/07/28 10:27:44;;;;;;;9.80;5.25;;;;;;;29.41;44.55;99353.81;4480344;32;33603;-65
2021/07/28 10:30:15;;;;;;;8.40;5.22;;;;;;;29.40;44.53;99350.22;4467958;32;34074;-62
2021/07/28 10:32:44;;;;;;;8.30;4.90;;;;;;;29.42;44.49;99352.69;4469153;32;34719;-65
2021/07/28 10:35:29;;;;;;;9.60;5.45;;;;;;;29.41;44.52;99346.37;4455422;32;33757;-64
2021/07/28 10:37:58;;;;;;;9.95;5.75;;;;;;;29.45;44.46;99346.66;4483623;32;34391;-66
2021/07/28 10:40:26;;;;;;;7.57;4.82;;;;;;;29.41;44.50;99340.88;4483694;32;34121;-66
2021/07/28 10:42:53;;;;;;;11.50;5.60;;;;;;;29.43;44.48;99333.19;4484871;32;34298;-65
2021/07/28 10:45:21;;;;;;;9.10;4.80;;;;;;;29.42;44.52;99336.19;4484418;32;34697;-63
2021/07/28 10:47:52;;;;;;;9.98;4.90;;;;;;;29.41;44.52;99332.63;4478019;32;33251;-65
2021/07/28 10:50:25;;;;;;;8.35;4.87;;;;;;;29.42;44.51;99333.44;4484687;32;33966;-64
2021/07/28 10:52:56;;;;;;;8.77;4.85;;;;;;;29.42;44.50;99338.94;4484744;32;34119;-65
2021/07/28 10:55:27;;;;;;;9.07;5.18;;;;;;;29.41;44.47;99324.38;4484872;32;34100;-65
2021/07/28 10:58:10;;;;;;;8.70;5.15;;;;;;;29.42;44.46;99326.03;4475367;32;33481;-66
2021/07/28 11:00:38;;;;;;;10.48;5.30;;;;;;;29.42;44.47;99330.69;4469100;32;34021;-64
2021/07/28 11:03:13;;;;;;;8.38;4.68;;;;;;;29.42;44.47;99326.03;4469001;32;35208;-65
2021/07/28 11:05:42;;;;;;;8.68;4.70;;;;;;;29.42;44.44;99322.47;4468009;32;34247;-65
2021/07/28 11:08:12;;;;;;;7.65;5.30;;;;;;;29.43;44.43;99324.13;4479260;32;33009;-65
2021/07/28 11:10:45;;;;;;;8.77;4.80;;;;;;;29.43;44.38;99313.13;4477355;32;33853;-64
2021/07/28 11:13:15;;;;;;;7.22;5.10;;;;;;;29.44;44.39;99303.78;4468760;32;35298;-64
2021/07/28 11:15:56;;;;;;;10.00;5.20;;;;;;;29.42;44.40;99314.22;4468878;32;34902;-66
2021/07/28 11:18:41;;;;;;;6.07;4.15;;;;;;;29.46;44.36;99312.56;4480494;32;33586;-66
2021/07/28 11:21:13;;;;;;;7.85;4.70;;;;;;;29.44;44.36;99312.84;4484641;32;33938;-64
2021/07/28 11:23:41;;;;;;;7.95;4.62;;;;;;;29.43;44.39;99316.72;4484491;32;34827;-64
2021/07/28 11:26:14;;;;;;;7.62;4.87;;;;;;;29.42;44.40;99309.53;4468800;32;34744;-64
2021/07/28 11:28:43;;;;;;;7.75;4.32;;;;;;;29.42;44.38;99304.03;4469190;32;33626;-66
2021/07/28 11:31:11;;;;;;;7.12;4.28;;;;;;;29.43;44.38;99313.13;4469042;32;33952;-62
2021/07/28 11:33:39;;;;;;;8.57;4.80;;;;;;;29.44;44.33;99306.53;4468099;32;33963;-65
2021/07/28 11:36:07;;;;;;;8.43;4.60;;;;;;;29.43;44.37;99293.91;4468994;32;33900;-66